Time;durP1;ratioP1;P1;durP2;ratioP2;P2;SDS_P1;SDS_P2;PMS_P1;PMS_P2;Temp;Humidity;BMP_temperature;BMP_pressure;BME280_temperature;BME280_humidity;BME280_pressure;Samples;Min_cycle;Max_cycle;Signal;HPM_P1;HPM_P2
2022/11/02 00:00:31;;;;;;;4.10;0.75;;;;;;;13.38;60.24;97665.41;4933923;29;20039;-71
2022/11/02 00:02:57;;;;;;;3.03;0.93;;;;;;;13.41;60.27;97665.69;4934249;29;20094;-71
2022/11/02 00:05:25;;;;;;;6.00;1.73;;;;;;;13.49;59.78;97667.88;4947370;28;20031;-71
2022/11/02 00:07:51;;;;;;;5.20;1.05;;;;;;;13.53;59.57;97665.53;4955160;28;20035;-72
2022/11/02 00:10:17;;;;;;;3.80;1.10;;;;;;;13.47;60.04;97666.56;4964350;28;20031;-70
2022/11/02 00:12:43;;;;;;;8.13;1.10;;;;;;;13.46;59.38;97662.34;4967029;28;20038;-71
2022/11/02 00:15:09;;;;;;;6.20;1.67;;;;;;;13.51;59.51;97657.16;4967400;28;20521;-71
2022/11/02 00:17:34;;;;;;;5.32;0.88;;;;;;;13.40;59.66;97663.34;4949588;29;20046;-71
2022/11/02 00:20:02;;;;;;;6.03;1.33;;;;;;;13.45;59.93;97653.72;4967311;28;20265;-71
2022/11/02 00:22:28;;;;;;;3.15;0.85;;;;;;;13.41;59.90;97657.06;4951240;29;20414;-71
2022/11/02 00:24:54;;;;;;;6.10;1.17;;;;;;;13.50;59.42;97652.94;4951318;29;20263;-72
2022/11/02 00:27:19;;;;;;;4.30;0.80;;;;;;;13.62;59.08;97663.22;4934713;29;20045;-71
2022/11/02 00:29:45;;;;;;;4.28;1.77;;;;;;;13.61;59.56;97656.44;4913567;29;20039;-71
2022/11/02 00:32:10;;;;;;;6.53;1.00;;;;;;;13.56;59.85;97656.41;4929883;29;20035;-71
2022/11/02 00:34:36;;;;;;;3.35;1.00;;;;;;;13.64;59.14;97663.75;4918601;29;20050;-71
2022/11/02 00:37:01;;;;;;;6.07;1.52;;;;;;;13.62;59.55;97658.81;4950578;29;20039;-72
2022/11/02 00:39:26;;;;;;;5.30;0.80;;;;;;;13.57;59.30;97653.53;4950524;29;20031;-70
2022/11/02 00:41:51;;;;;;;5.68;0.73;;;;;;;13.58;59.18;97657.72;4951170;29;20102;-71
2022/11/02 00:44:17;;;;;;;4.65;0.80;;;;;;;13.71;59.25;97668.78;4951363;29;20110;-71
2022/11/02 00:46:42;;;;;;;5.30;0.90;;;;;;;13.64;59.13;97669.81;4976363;28;20134;-71
2022/11/02 00:49:07;;;;;;;4.00;1.17;;;;;;;13.45;59.93;97653.72;4963032;28;20035;-72
2022/11/02 00:51:33;;;;;;;7.28;1.17;;;;;;;13.61;59.35;97659.06;4931916;29;20047;-72
2022/11/02 00:53:58;;;;;;;5.43;1.08;;;;;;;13.54;59.54;97659.28;4952035;28;20038;-71
2022/11/02 00:56:23;;;;;;;4.13;1.10;;;;;;;13.65;59.25;97666.13;4933064;29;20023;-71
2022/11/02 00:58:49;;;;;;;4.07;1.00;;;;;;;13.63;59.07;97660.38;4951111;29;20082;-71
2022/11/02 01:01:14;;;;;;;6.28;1.10;;;;;;;13.64;59.63;97658.53;4948476;29;20042;-71
2022/11/02 01:03:39;;;;;;;4.07;0.60;;;;;;;13.61;59.54;97665.06;4947011;29;20041;-71
2022/11/02 01:06:10;;;;;;;4.03;0.90;;;;;;;13.63;59.45;97667.44;4965841;28;20062;-71
2022/11/02 01:08:36;;;;;;;6.68;1.05;;;;;;;13.73;59.11;97664.88;4918371;29;20399;-71
2022/11/02 01:11:09;;;;;;;5.97;1.05;;;;;;;13.92;58.97;97657.41;4950441;29;20035;-71
2022/11/02 01:13:34;;;;;;;4.50;0.90;;;;;;;13.74;59.16;97661.22;4934967;29;20058;-71
2022/11/02 01:16:03;;;;;;;4.75;1.00;;;;;;;13.76;59.73;97661.78;4934630;29;20521;-70
2022/11/02 01:18:28;;;;;;;7.60;1.65;;;;;;;13.83;59.17;97656.31;4950182;29;20031;-72
2022/11/02 01:20:58;;;;;;;6.45;1.38;;;;;;;13.84;58.84;97658.66;4951846;29;20086;-71
2022/11/02 01:23:23;;;;;;;10.80;1.70;;;;;;;13.75;59.11;97654.94;4917876;29;20039;-72
2022/11/02 01:25:48;;;;;;;10.88;1.35;;;;;;;13.79;58.90;97645.53;4934319;29;20094;-71
2022/11/02 01:28:14;;;;;;;3.30;0.75;;;;;;;13.89;58.75;97654.50;4951744;29;20062;-72
2022/11/02 01:30:39;;;;;;;6.18;1.33;;;;;;;13.89;58.58;97652.69;4950019;29;20034;-70
2022/11/02 01:33:05;;;;;;;4.80;0.82;;;;;;;14.08;58.01;97649.63;4934068;29;20074;-72
2022/11/02 01:35:31;;;;;;;4.53;1.17;;;;;;;14.05;58.43;97636.00;4949097;28;20039;-72
2022/11/02 01:37:56;;;;;;;5.13;0.90;;;;;;;13.97;58.64;97644.34;4933910;29;20086;-71
2022/11/02 01:40:21;;;;;;;4.57;1.75;;;;;;;13.99;57.88;97644.09;4934162;29;20106;-71
2022/11/02 01:42:47;;;;;;;6.43;1.73;;;;;;;13.94;58.73;97644.84;4949826;29;20485;-71
2022/11/02 01:45:13;;;;;;;6.00;0.90;;;;;;;13.95;58.32;97649.06;4949788;28;20577;-71
2022/11/02 01:47:45;;;;;;;5.90;0.90;;;;;;;14.03;58.61;97634.69;4946957;29;20027;-71
2022/11/02 01:50:13;;;;;;;5.20;0.90;;;;;;;14.01;58.81;97636.75;4934088;29;20490;-72
2022/11/02 01:52:39;;;;;;;8.20;1.45;;;;;;;13.83;58.83;97638.78;4933726;29;20122;-71
2022/11/02 01:55:28;;;;;;;6.55;1.40;;;;;;;14.04;58.76;97641.50;4966362;28;20329;-73
2022/11/02 01:57:58;;;;;;;6.43;1.00;;;;;;;14.00;58.69;97638.59;4947312;29;20040;-73
2022/11/02 02:00:23;;;;;;;7.55;1.08;;;;;;;13.88;59.11;97637.22;4934638;29;20091;-71
2022/11/02 02:03:03;;;;;;;6.80;1.52;;;;;;;14.14;58.53;97646.00;4946721;28;20027;-71
2022/11/02 02:05:29;;;;;;;5.00;0.98;;;;;;;14.12;58.26;97640.22;4963104;28;20080;-71
2022/11/02 02:07:55;;;;;;;6.88;1.10;;;;;;;14.08;58.54;97639.94;4949580;29;20036;-71
2022/11/02 02:10:20;;;;;;;9.90;1.00;;;;;;;14.02;58.54;97636.50;4933791;29;20046;-71
2022/11/02 02:12:46;;;;;;;6.53;1.75;;;;;;;14.07;57.90;97630.53;4950302;29;20045;-71
2022/11/02 02:15:12;;;;;;;5.43;1.30;;;;;;;13.89;58.37;97630.94;4933992;29;20118;-71
2022/11/02 02:17:52;;;;;;;4.22;0.82;;;;;;;14.25;58.06;97642.38;4933272;29;20499;-71
2022/11/02 02:20:53;;;;;;;6.05;1.00;;;;;;;14.15;58.42;97637.09;4949401;28;20039;-71
2022/11/02 02:23:43;;;;;;;4.63;0.77;;;;;;;14.29;58.38;97632.97;4933600;29;20046;-71
2022/11/02 02:26:20;;;;;;;4.05;0.68;;;;;;;14.28;57.80;97635.84;4933473;29;20101;-70
2022/11/02 02:29:07;;;;;;;5.15;1.52;;;;;;;14.41;58.51;97636.16;4966383;28;20505;-72
2022/11/02 02:31:58;;;;;;;6.93;1.10;;;;;;;14.52;58.08;97630.94;4950972;29;20047;-72
2022/11/02 02:34:32;;;;;;;5.55;1.10;;;;;;;14.24;58.00;97640.81;4949867;28;20495;-72
2022/11/02 02:37:05;;;;;;;6.60;0.80;;;;;;;14.35;58.43;97642.41;4933569;29;20090;-71
2022/11/02 02:39:48;;;;;;;4.82;1.20;;;;;;;14.65;57.23;97635.72;4949792;29;20630;-71
2022/11/02 02:42:24;;;;;;;7.82;0.80;;;;;;;14.76;57.17;97637.28;4946221;29;20054;-71
2022/11/02 02:45:13;;;;;;;5.88;1.15;;;;;;;14.71;57.34;97629.44;4932514;29;20062;-72
2022/11/02 02:47:48;;;;;;;4.43;1.02;;;;;;;14.71;57.60;97631.28;4945698;29;20053;-72
2022/11/02 02:50:17;;;;;;;2.72;0.80;;;;;;;14.89;57.06;97625.53;4948721;29;20046;-71
2022/11/02 02:52:44;;;;;;;4.28;1.45;;;;;;;14.73;57.35;97627.31;4932943;29;20035;-72
2022/11/02 02:55:18;;;;;;;4.18;0.80;;;;;;;14.84;56.94;97629.97;4964909;28;20125;-72
2022/11/02 02:57:44;;;;;;;4.35;1.23;;;;;;;14.81;56.77;97627.88;4948855;29;20550;-71
2022/11/02 03:00:15;;;;;;;4.88;1.13;;;;;;;14.93;56.68;97641.53;4948057;29;20042;-72
2022/11/02 03:02:41;;;;;;;4.50;0.90;;;;;;;14.86;57.15;97636.53;4948419;29;20395;-71
2022/11/02 03:05:23;;;;;;;4.00;1.38;;;;;;;15.13;56.59;97640.75;4965066;28;20396;-70
2022/11/02 03:07:49;;;;;;;4.47;0.70;;;;;;;14.96;57.01;97628.69;4964234;28;20023;-71
2022/11/02 03:10:24;;;;;;;5.85;0.82;;;;;;;15.05;57.30;97631.56;4965372;28;20041;-72
2022/11/02 03:13:03;;;;;;;4.53;1.77;;;;;;;15.01;56.63;97634.97;4949249;29;20498;-71
2022/11/02 03:15:36;;;;;;;3.85;0.98;;;;;;;15.12;56.74;97639.19;4917447;29;20495;-72
2022/11/02 03:18:26;;;;;;;6.65;1.60;;;;;;;15.11;56.53;97633.16;4948813;29;20031;-72
2022/11/02 03:21:18;;;;;;;6.30;1.52;;;;;;;15.17;56.61;97626.84;4974456;28;20064;-71
2022/11/02 03:24:24;;;;;;;2.67;0.90;;;;;;;15.17;56.51;97637.34;4949137;29;20071;-71
2022/11/02 03:27:13;;;;;;;6.03;0.95;;;;;;;15.05;57.00;97634.19;4948923;29;20065;-71
2022/11/02 03:30:03;;;;;;;5.30;0.77;;;;;;;14.90;57.09;97639.41;4949181;29;20162;-72
2022/11/02 03:32:53;;;;;;;5.15;1.67;;;;;;;15.02;57.67;97642.56;4933463;29;20035;-71
2022/11/02 03:35:24;;;;;;;4.90;1.02;;;;;;;15.08;56.90;97644.16;4917276;29;20035;-72
2022/11/02 03:37:58;;;;;;;4.82;1.13;;;;;;;14.95;57.81;97644.66;4926669;29;20043;-71
2022/11/02 03:40:28;;;;;;;8.93;1.92;;;;;;;14.71;57.56;97645.16;4948349;29;20542;-70
2022/11/02 03:42:54;;;;;;;8.48;1.10;;;;;;;14.60;58.49;97660.06;4948358;29;20035;-70
2022/11/02 03:45:25;;;;;;;5.47;0.80;;;;;;;15.12;57.15;97655.69;4968053;28;20043;-71
2022/11/02 03:47:58;;;;;;;4.38;0.90;;;;;;;15.12;57.37;97655.69;4945372;29;20035;-71
2022/11/02 03:50:26;;;;;;;4.93;1.30;;;;;;;14.85;57.99;97655.16;4963459;28;20067;-71
2022/11/02 03:53:09;;;;;;;3.67;0.95;;;;;;;14.95;57.94;97660.41;4929699;29;20047;-71
2022/11/02 03:55:38;;;;;;;2.95;0.60;;;;;;;14.92;58.55;97674.03;4948524;29;20530;-71
2022/11/02 03:58:04;;;;;;;6.40;1.00;;;;;;;14.92;58.02;97674.81;4947889;29;20050;-71
2022/11/02 04:00:33;;;;;;;4.43;1.08;;;;;;;15.06;58.03;97680.34;4948542;29;20031;-71
2022/11/02 04:02:59;;;;;;;7.85;0.98;;;;;;;14.83;59.27;97688.72;4931931;29;20475;-72
2022/11/02 04:05:33;;;;;;;8.98;1.85;;;;;;;15.11;58.87;97683.00;4942052;29;20043;-71
2022/11/02 04:16:10;;;;;;;7.03;1.40;;;;;;;14.88;59.57;97693.97;4948039;29;20408;-71
2022/11/02 04:21:20;;;;;;;6.22;1.85;;;;;;;14.97;58.76;97695.00;4934852;29;20376;-72
2022/11/02 04:26:29;;;;;;;4.80;0.77;;;;;;;15.01;58.74;97690.03;4949674;28;20040;-71
2022/11/02 04:28:54;;;;;;;4.15;0.77;;;;;;;15.09;58.03;97684.28;4968676;28;20031;-70
2022/11/02 04:31:20;;;;;;;4.75;1.00;;;;;;;14.96;58.81;97693.47;4952044;29;20478;-70
2022/11/02 04:33:45;;;;;;;4.35;0.75;;;;;;;14.91;59.20;97698.69;4953572;29;20446;-70
2022/11/02 04:36:10;;;;;;;4.18;1.02;;;;;;;15.05;58.88;97693.72;4953090;29;20039;-71
2022/11/02 04:38:42;;;;;;;3.88;0.65;;;;;;;15.10;58.72;97702.38;4952067;29;20032;-72
2022/11/02 04:43:58;;;;;;;3.63;0.90;;;;;;;14.94;58.84;97712.06;4951502;29;20038;-71
2022/11/02 04:46:26;;;;;;;4.85;0.88;;;;;;;14.92;59.26;97714.13;4934346;29;20027;-71
2022/11/02 04:48:52;;;;;;;5.70;1.05;;;;;;;15.07;58.76;97720.47;4948305;29;20027;-71
2022/11/02 04:51:19;;;;;;;5.63;0.63;;;;;;;15.05;59.03;97722.56;4950841;29;20050;-71
2022/11/02 04:53:46;;;;;;;7.18;1.00;;;;;;;15.14;59.01;97727.03;4950883;29;20589;-72
2022/11/02 04:56:11;;;;;;;4.20;1.20;;;;;;;15.11;59.38;97732.00;4950554;29;20039;-71
2022/11/02 04:58:37;;;;;;;7.97;1.08;;;;;;;15.24;58.84;97741.22;4966949;28;20042;-71
2022/11/02 05:01:22;;;;;;;4.25;0.65;;;;;;;15.25;58.90;97740.97;4934466;29;20388;-71
2022/11/02 05:03:51;;;;;;;7.63;1.52;;;;;;;15.00;59.19;97731.22;4933384;29;20035;-71
2022/11/02 05:06:18;;;;;;;7.22;0.68;;;;;;;15.02;59.50;97734.34;4949890;29;20039;-71
2022/11/02 05:08:44;;;;;;;3.90;0.82;;;;;;;15.06;59.52;97745.94;4976808;28;20019;-72
2022/11/02 05:11:10;;;;;;;5.53;0.90;;;;;;;15.17;59.18;97737.00;4950847;29;20039;-71
2022/11/02 05:13:36;;;;;;;7.35;1.40;;;;;;;15.16;59.38;97740.69;4950769;29;20035;-71
2022/11/02 05:16:01;;;;;;;6.13;1.40;;;;;;;15.10;59.00;97738.31;4974826;28;20074;-72
2022/11/02 05:18:27;;;;;;;6.57;1.85;;;;;;;15.06;59.37;97748.56;4966104;28;20031;-70
2022/11/02 05:20:55;;;;;;;5.95;1.25;;;;;;;15.15;58.91;97740.97;4947143;29;20697;-72
2022/11/02 05:23:21;;;;;;;6.60;1.40;;;;;;;15.01;59.52;97745.09;4968477;28;20050;-71
2022/11/02 05:26:06;;;;;;;9.20;1.00;;;;;;;15.26;58.73;97741.75;4947487;29;20050;-71
2022/11/02 05:28:32;;;;;;;4.57;0.98;;;;;;;14.98;59.63;97743.81;4949774;29;20035;-71
2022/11/02 05:30:59;;;;;;;6.07;1.52;;;;;;;15.02;59.62;97752.72;4933952;29;20035;-72
2022/11/02 05:33:24;;;;;;;4.10;0.93;;;;;;;14.73;60.28;97755.75;4947628;29;20034;-70
2022/11/02 05:35:50;;;;;;;6.00;1.83;;;;;;;14.97;59.84;97758.72;4917975;29;20488;-72
2022/11/02 05:38:15;;;;;;;5.63;0.98;;;;;;;14.97;59.10;97750.09;4949389;28;20039;-72
2022/11/02 05:40:40;;;;;;;5.55;1.23;;;;;;;14.96;59.50;97762.41;4950211;29;20031;-71
2022/11/02 05:43:09;;;;;;;6.72;1.58;;;;;;;15.08;59.15;97759.56;4950297;29;20680;-70
2022/11/02 05:45:35;;;;;;;4.45;1.42;;;;;;;15.07;58.80;97762.44;4950012;28;20229;-71
2022/11/02 05:48:02;;;;;;;6.43;1.30;;;;;;;14.58;60.04;97758.28;4949432;29;20039;-71
2022/11/02 05:50:31;;;;;;;3.50;0.93;;;;;;;14.96;59.66;97759.00;4941904;29;20099;-71
2022/11/02 05:52:56;;;;;;;5.07;1.40;;;;;;;14.96;59.63;97759.00;4949637;29;20122;-71
2022/11/02 05:55:22;;;;;;;4.40;1.00;;;;;;;14.98;59.38;97767.41;4949513;29;20426;-71
2022/11/02 05:57:52;;;;;;;2.65;0.77;;;;;;;15.14;59.19;97763.75;4965336;28;20053;-71
2022/11/02 06:00:18;;;;;;;2.63;0.90;;;;;;;15.11;59.22;97766.13;4949367;29;20542;-72
2022/11/02 06:02:43;;;;;;;4.57;1.60;;;;;;;15.16;58.89;97766.94;4958439;28;20126;-71
2022/11/02 06:05:09;;;;;;;6.40;1.10;;;;;;;15.05;59.45;97770.56;4948793;29;20123;-71
2022/11/02 06:07:34;;;;;;;5.35;0.98;;;;;;;15.01;59.40;97774.75;4930802;29;20236;-71
2022/11/02 06:10:01;;;;;;;4.40;0.88;;;;;;;14.91;59.58;97769.47;4949995;28;20102;-72
2022/11/02 06:12:26;;;;;;;5.43;0.98;;;;;;;14.72;60.25;97783.03;4949098;29;20403;-70
2022/11/02 06:14:52;;;;;;;5.13;0.85;;;;;;;14.69;60.21;97783.53;4949796;29;20038;-71
2022/11/02 06:17:17;;;;;;;8.52;1.10;;;;;;;14.79;60.08;97785.44;4948939;29;20035;-70
2022/11/02 06:19:42;;;;;;;5.53;0.90;;;;;;;14.94;59.40;97793.34;4949009;29;20043;-71
2022/11/02 06:22:08;;;;;;;9.50;1.15;;;;;;;14.58;60.49;97790.59;4948187;29;20047;-71
2022/11/02 06:24:33;;;;;;;5.68;1.17;;;;;;;14.75;60.01;97787.78;4947924;29;20035;-71
2022/11/02 06:26:58;;;;;;;6.72;1.60;;;;;;;14.72;59.95;97798.78;4967893;28;20118;-72
2022/11/02 06:29:23;;;;;;;4.18;1.52;;;;;;;14.84;59.59;97805.63;4964772;28;20165;-71
2022/11/02 06:31:49;;;;;;;2.75;1.00;;;;;;;14.51;60.60;97802.28;4948163;29;20159;-71
2022/11/02 06:34:14;;;;;;;3.95;1.10;;;;;;;14.69;60.07;97811.59;4947225;29;20122;-71
2022/11/02 06:36:39;;;;;;;3.92;0.90;;;;;;;14.61;60.54;97826.75;4952421;28;20085;-71
2022/11/02 06:39:05;;;;;;;9.15;2.15;;;;;;;14.67;60.38;97821.53;4964429;28;20046;-71
2022/11/02 06:41:30;;;;;;;4.78;0.90;;;;;;;14.71;60.10;97820.78;4949380;28;20027;-72
2022/11/02 06:43:55;;;;;;;6.50;1.00;;;;;;;14.70;59.72;97819.22;4948102;29;20352;-71
2022/11/02 06:46:21;;;;;;;6.53;1.30;;;;;;;14.61;60.03;97833.81;4929189;29;20424;-71
2022/11/02 06:48:47;;;;;;;2.28;0.80;;;;;;;14.60;60.36;97833.03;4932416;29;20031;-71
2022/11/02 06:51:12;;;;;;;6.20;0.88;;;;;;;14.52;60.43;97835.31;4964003;28;20295;-71
2022/11/02 06:53:38;;;;;;;7.57;1.15;;;;;;;14.65;60.15;97849.81;4931921;29;20497;-71
2022/11/02 06:56:03;;;;;;;4.68;0.93;;;;;;;14.62;60.26;97851.13;4932649;29;20041;-71
2022/11/02 06:58:29;;;;;;;7.18;1.17;;;;;;;14.46;60.80;97867.75;4932748;29;20035;-70
2022/11/02 07:01:03;;;;;;;5.40;1.20;;;;;;;14.59;60.36;97869.97;4948157;29;20620;-72
2022/11/02 07:03:29;;;;;;;5.63;1.00;;;;;;;14.56;60.36;97867.84;4952579;28;21183;-72
2022/11/02 07:05:54;;;;;;;3.80;0.73;;;;;;;14.56;60.40;97880.94;4949595;28;20047;-71
2022/11/02 07:08:20;;;;;;;6.22;1.00;;;;;;;14.47;60.88;97874.59;4948275;29;20019;-71
2022/11/02 07:10:46;;;;;;;11.48;1.95;;;;;;;14.50;60.57;97881.97;4914564;29;20073;-71
2022/11/02 07:13:12;;;;;;;6.68;2.15;;;;;;;14.47;60.67;97880.63;4947732;29;20480;-71
2022/11/02 07:15:38;;;;;;;3.45;1.20;;;;;;;14.54;60.80;97883.81;4948071;29;20054;-72
2022/11/02 07:18:05;;;;;;;8.07;1.67;;;;;;;14.49;61.10;97888.22;4949084;29;20547;-71
2022/11/02 07:20:30;;;;;;;5.88;1.52;;;;;;;14.53;61.20;97889.28;4949349;29;20373;-71
2022/11/02 07:22:58;;;;;;;5.28;0.95;;;;;;;14.50;60.89;97898.47;4932843;29;20097;-71
2022/11/02 07:25:26;;;;;;;4.05;1.10;;;;;;;14.48;61.18;97902.34;4931838;29;20125;-72
2022/11/02 07:27:51;;;;;;;8.85;2.15;;;;;;;14.54;60.86;97903.97;4948245;28;20031;-72
2022/11/02 07:30:17;;;;;;;3.92;0.90;;;;;;;14.55;61.43;97910.81;4916973;29;20101;-71
2022/11/02 07:32:45;;;;;;;8.95;1.63;;;;;;;14.65;61.07;97913.53;4932777;29;20142;-71
2022/11/02 07:35:13;;;;;;;6.45;1.50;;;;;;;14.78;61.36;97918.31;4948731;28;20487;-72
2022/11/02 07:37:39;;;;;;;4.10;1.50;;;;;;;14.83;60.46;97919.41;4931909;29;20550;-71
2022/11/02 07:40:06;;;;;;;5.88;1.30;;;;;;;14.96;60.71;97925.00;4932502;29;20027;-72
2022/11/02 07:42:31;;;;;;;5.30;1.10;;;;;;;15.00;60.77;97927.91;4948876;29;20036;-71
2022/11/02 07:44:57;;;;;;;4.85;0.80;;;;;;;15.05;60.23;97933.16;4944160;28;20035;-71
2022/11/02 07:47:22;;;;;;;5.18;1.00;;;;;;;15.03;60.04;97932.63;4947312;29;20031;-71
2022/11/02 07:49:47;;;;;;;7.03;1.60;;;;;;;15.23;59.58;97939.78;4949572;29;20467;-72
2022/11/02 07:52:13;;;;;;;5.50;0.88;;;;;;;15.23;59.94;97944.25;4949262;28;20047;-71
2022/11/02 07:54:38;;;;;;;6.28;1.35;;;;;;;15.20;60.26;97939.53;4964238;28;20054;-71
2022/11/02 07:57:04;;;;;;;5.20;1.20;;;;;;;15.35;59.36;97952.72;4948554;29;20086;-71
2022/11/02 07:59:29;;;;;;;7.22;2.15;;;;;;;15.15;60.15;97953.44;4917570;29;20118;-71
2022/11/02 08:01:54;;;;;;;2.42;1.17;;;;;;;15.33;59.38;97945.09;4949721;28;20104;-72
2022/11/02 08:04:19;;;;;;;5.18;1.10;;;;;;;15.42;59.49;97948.03;4951747;29;20063;-71
2022/11/02 08:06:45;;;;;;;5.13;1.20;;;;;;;15.44;58.80;97945.94;4953560;29;20051;-71
2022/11/02 08:09:11;;;;;;;5.60;1.33;;;;;;;15.40;59.02;97944.88;4951317;29;20057;-71
2022/11/02 08:11:36;;;;;;;6.18;0.90;;;;;;;15.50;59.35;97950.16;4952663;29;20031;-71
2022/11/02 08:14:01;;;;;;;5.50;1.20;;;;;;;15.53;58.63;97949.66;4932040;29;20118;-71
2022/11/02 08:16:28;;;;;;;7.85;1.73;;;;;;;15.73;58.07;97948.16;4951569;29;20063;-71
2022/11/02 08:18:53;;;;;;;7.10;1.35;;;;;;;15.77;57.94;97951.06;4936366;29;20075;-71
2022/11/02 08:21:18;;;;;;;7.43;1.83;;;;;;;15.66;58.52;97964.13;4919552;29;20079;-72
2022/11/02 08:23:44;;;;;;;8.55;1.98;;;;;;;15.64;58.83;97957.56;4951360;29;20047;-71
2022/11/02 08:26:09;;;;;;;6.47;1.15;;;;;;;15.72;57.97;97962.31;4966754;28;20043;-72
2022/11/02 08:28:35;;;;;;;5.05;1.20;;;;;;;15.76;57.69;97963.41;4951909;29;20029;-71
2022/11/02 08:31:01;;;;;;;4.88;1.00;;;;;;;15.69;56.82;97960.97;4951520;29;20122;-72
2022/11/02 08:33:26;;;;;;;6.15;1.67;;;;;;;15.62;57.79;97964.91;4936121;29;20090;-71
2022/11/02 08:35:52;;;;;;;6.55;1.50;;;;;;;15.74;56.39;97954.97;4935721;29;20090;-72
2022/11/02 08:38:21;;;;;;;5.95;1.52;;;;;;;15.71;56.23;97966.78;4942009;29;20039;-71
2022/11/02 08:40:47;;;;;;;6.50;1.50;;;;;;;15.69;56.71;97963.59;4951674;29;20043;-71
2022/11/02 08:43:13;;;;;;;6.97;1.63;;;;;;;15.53;56.71;97970.63;4951295;29;20078;-70
2022/11/02 08:45:40;;;;;;;6.78;2.13;;;;;;;15.80;55.40;97963.66;4960916;28;20141;-71
2022/11/02 08:48:06;;;;;;;7.68;1.55;;;;;;;15.82;56.31;97957.13;4951375;29;20031;-71
2022/11/02 08:50:31;;;;;;;7.30;1.33;;;;;;;15.87;55.59;97957.13;4926085;29;20046;-72
2022/11/02 08:52:57;;;;;;;7.63;1.63;;;;;;;15.47;57.32;97966.44;4917107;29;20133;-72
2022/11/02 08:55:22;;;;;;;8.20;1.58;;;;;;;15.63;57.25;97963.88;4949178;28;20106;-71
2022/11/02 08:57:49;;;;;;;7.68;2.03;;;;;;;15.69;56.18;97970.69;4963849;28;20558;-71
2022/11/02 09:00:15;;;;;;;6.18;1.40;;;;;;;15.70;56.44;97967.81;4978880;28;20035;-71
2022/11/02 09:02:40;;;;;;;10.02;2.08;;;;;;;15.58;57.77;97951.50;4946051;29;20408;-71
2022/11/02 09:05:06;;;;;;;7.70;1.45;;;;;;;15.78;56.93;97960.50;4935086;29;20036;-72
2022/11/02 09:07:31;;;;;;;8.75;1.50;;;;;;;15.84;56.63;97954.25;4948393;29;20034;-71
2022/11/02 09:09:57;;;;;;;15.27;2.17;;;;;;;15.86;56.85;97955.53;4935697;29;20058;-71
2022/11/02 09:12:22;;;;;;;8.10;1.38;;;;;;;15.66;57.31;97953.63;4949729;28;20035;-71
2022/11/02 09:14:47;;;;;;;8.85;1.58;;;;;;;15.56;57.20;97948.34;4951084;29;20552;-71
2022/11/02 09:17:13;;;;;;;6.35;1.67;;;;;;;15.73;56.18;97954.19;4950466;29;20129;-72
2022/11/02 09:19:38;;;;;;;6.75;1.67;;;;;;;15.79;55.61;97962.09;4950567;29;20117;-71
2022/11/02 09:22:03;;;;;;;5.95;1.63;;;;;;;15.91;55.66;97957.41;4966075;28;20502;-71
2022/11/02 09:24:29;;;;;;;7.82;1.83;;;;;;;15.89;55.51;97957.66;4947476;29;20470;-71
2022/11/02 09:26:54;;;;;;;7.15;1.60;;;;;;;15.64;56.42;97952.31;4950080;29;20035;-71
2022/11/02 09:29:19;;;;;;;7.45;1.85;;;;;;;15.87;55.85;97967.63;4934161;29;20082;-71
2022/11/02 09:31:47;;;;;;;9.15;1.63;;;;;;;16.06;56.26;97956.66;4925284;29;20074;-72
2022/11/02 09:34:13;;;;;;;9.82;1.35;;;;;;;16.11;55.09;97961.91;4933687;29;20035;-73
2022/11/02 09:36:38;;;;;;;6.18;1.20;;;;;;;16.05;53.19;97971.59;4936415;29;20050;-71
2022/11/02 09:39:04;;;;;;;6.38;1.58;;;;;;;15.99;54.15;97961.34;4949828;29;20027;-71
2022/11/02 09:41:36;;;;;;;6.57;1.48;;;;;;;16.08;52.88;97965.84;4933491;29;20058;-72
2022/11/02 09:44:21;;;;;;;4.75;1.25;;;;;;;16.52;52.71;97969.84;4947615;29;20050;-71
2022/11/02 09:46:46;;;;;;;7.22;1.42;;;;;;;16.57;52.12;97976.91;4959454;28;20383;-71
2022/11/02 09:49:15;;;;;;;8.15;1.80;;;;;;;16.82;52.10;97962.97;4967560;28;20038;-71
2022/11/02 09:51:51;;;;;;;6.40;1.13;;;;;;;16.94;52.77;97973.25;4934966;29;20093;-71
2022/11/02 09:54:28;;;;;;;6.60;1.67;;;;;;;16.80;52.90;97973.75;4934179;29;20529;-72
2022/11/02 09:56:56;;;;;;;6.45;1.30;;;;;;;16.80;52.31;97980.84;4949602;29;20039;-71
2022/11/02 09:59:24;;;;;;;5.85;1.38;;;;;;;17.00;51.19;97975.59;4950455;29;20107;-70
2022/11/02 10:02:12;;;;;;;5.05;1.20;;;;;;;17.34;50.03;97977.63;4918186;29;20039;-72
2022/11/02 10:04:40;;;;;;;6.32;1.40;;;;;;;17.30;49.16;97988.94;4966608;28;20423;-72
2022/11/02 10:07:13;;;;;;;6.13;1.27;;;;;;;17.48;47.61;97988.38;4951064;29;20090;-70
2022/11/02 10:09:48;;;;;;;4.70;1.52;;;;;;;17.25;48.26;97991.59;4934491;29;20035;-71
2022/11/02 10:12:18;;;;;;;6.78;1.50;;;;;;;17.34;48.87;97998.69;4933453;29;20031;-71
2022/11/02 10:14:49;;;;;;;8.40;1.40;;;;;;;17.32;49.03;98000.78;4949665;29;20070;-71
2022/11/02 10:17:19;;;;;;;6.25;1.05;;;;;;;17.18;49.78;98003.19;4950652;29;20487;-72
2022/11/02 10:19:48;;;;;;;3.25;1.48;;;;;;;16.97;51.17;97994.53;4933325;29;20531;-72
2022/11/02 10:22:14;;;;;;;6.13;1.35;;;;;;;17.04;50.97;97995.03;4933445;29;20031;-72
2022/11/02 10:24:44;;;;;;;6.25;1.08;;;;;;;17.27;50.52;97995.53;4930577;29;20066;-71
2022/11/02 10:27:20;;;;;;;4.90;1.30;;;;;;;17.19;49.74;97999.50;4931107;29;20434;-71
2022/11/02 10:29:54;;;;;;;4.90;1.38;;;;;;;17.23;50.30;97990.00;4949319;28;20038;-73
2022/11/02 10:32:19;;;;;;;8.20;1.30;;;;;;;17.14;50.61;97983.72;4931375;29;20391;-71
2022/11/02 10:34:45;;;;;;;7.68;1.45;;;;;;;16.92;51.11;97978.75;4928516;29;20039;-72
2022/11/02 10:37:29;;;;;;;7.43;1.80;;;;;;;17.18;49.51;97990.00;4963943;28;20562;-72
2022/11/02 10:40:00;;;;;;;5.00;1.77;;;;;;;17.27;48.72;97992.88;4950393;28;20038;-71
2022/11/02 10:42:39;;;;;;;6.35;1.67;;;;;;;17.37;48.23;98003.38;4950162;28;20031;-71
2022/11/02 10:45:16;;;;;;;6.28;1.20;;;;;;;17.40;48.48;97989.69;4943517;28;20472;-72
2022/11/02 10:47:56;;;;;;;6.07;1.65;;;;;;;17.43;48.10;97988.38;4949615;28;20035;-73
2022/11/02 10:51:07;;;;;;;5.88;1.90;;;;;;;17.58;49.61;97974.34;4944653;29;20042;-70
2022/11/02 10:53:40;;;;;;;5.70;1.10;;;;;;;17.68;48.04;97974.31;4925656;29;20050;-71
2022/11/02 10:56:21;;;;;;;6.88;1.55;;;;;;;17.87;47.64;97976.38;4948827;29;20046;-70
2022/11/02 10:59:02;;;;;;;8.98;2.03;;;;;;;18.18;46.04;97965.63;4964381;28;20047;-70
2022/11/02 11:01:29;;;;;;;9.93;1.52;;;;;;;18.02;47.53;97971.00;4917742;29;20027;-71
2022/11/02 11:03:56;;;;;;;4.82;1.02;;;;;;;18.20;46.16;97974.06;4931712;29;20042;-72
2022/11/02 11:06:23;;;;;;;6.78;1.83;;;;;;;18.22;45.21;97967.47;4964983;28;20035;-71
2022/11/02 11:08:50;;;;;;;6.80;1.83;;;;;;;18.53;45.79;97965.38;4932823;29;20810;-71
2022/11/02 11:11:30;;;;;;;4.55;1.33;;;;;;;18.60;43.35;97970.34;4948715;29;20141;-71
2022/11/02 11:13:58;;;;;;;4.03;0.95;;;;;;;17.98;44.18;97971.84;4931634;29;20292;-72
2022/11/02 11:16:36;;;;;;;5.22;1.55;;;;;;;17.83;45.02;97959.50;4932725;29;20087;-71
2022/11/02 11:19:03;;;;;;;4.03;1.08;;;;;;;17.78;45.13;97958.47;4950120;29;20039;-72
2022/11/02 11:21:37;;;;;;;6.55;1.10;;;;;;;17.68;45.08;97968.25;4937306;29;20023;-72
2022/11/02 11:24:32;;;;;;;6.28;1.55;;;;;;;17.64;44.52;97973.28;4930610;29;20076;-71
2022/11/02 11:27:07;;;;;;;7.35;1.30;;;;;;;17.67;44.87;97967.50;4916327;29;20465;-71
2022/11/02 11:29:35;;;;;;;6.68;1.25;;;;;;;17.46;46.91;97966.78;4946170;29;20035;-72
2022/11/02 11:32:01;;;;;;;8.63;1.85;;;;;;;17.54;45.51;97966.22;4929757;29;20045;-72
2022/11/02 11:34:32;;;;;;;6.15;1.67;;;;;;;17.67;46.40;97970.13;4947922;29;20046;-71
2022/11/02 11:37:12;;;;;;;8.75;1.13;;;;;;;17.67;46.62;97974.59;4933489;29;20495;-71
2022/11/02 11:39:39;;;;;;;3.47;0.80;;;;;;;18.29;44.77;97961.88;4935896;29;20031;-73
2022/11/02 11:42:16;;;;;;;5.70;1.52;;;;;;;18.29;44.13;97956.59;4950369;29;20040;-73
2022/11/02 11:45:00;;;;;;;6.35;1.40;;;;;;;18.22;44.64;97956.13;4915466;28;20090;-72
2022/11/02 11:47:28;;;;;;;8.32;1.60;;;;;;;18.09;45.63;97949.63;4948701;29;20131;-72
2022/11/02 11:49:54;;;;;;;5.05;1.00;;;;;;;17.95;44.69;97946.81;4950771;29;20035;-71
2022/11/02 11:52:25;;;;;;;6.10;1.60;;;;;;;18.10;44.50;97948.56;4981017;28;20042;-72
2022/11/02 11:54:55;;;;;;;6.05;1.17;;;;;;;18.18;45.21;97957.72;4967558;28;20023;-71
2022/11/02 11:57:24;;;;;;;5.75;1.35;;;;;;;18.00;45.91;97962.59;4936545;29;20035;-71
2022/11/02 11:59:51;;;;;;;5.47;1.48;;;;;;;17.84;45.16;97959.25;4948739;29;20031;-72